sensor_id;sensor_type;location;lat;lon;timestamp;temperature;humidity
21207;DHT22;10761;48.532;8.026;2023-08-30T00:00:41;13.60;99.90
21207;DHT22;10761;48.532;8.026;2023-08-30T00:03:07;13.60;99.90
21207;DHT22;10761;48.532;8.026;2023-08-30T00:05:33;13.60;99.90
21207;DHT22;10761;48.532;8.026;2023-08-30T00:07:59;13.70;99.90
21207;DHT22;10761;48.532;8.026;2023-08-30T00:10:24;13.70;99.90
21207;DHT22;10761;48.532;8.026;2023-08-30T00:12:50;13.70;99.90
21207;DHT22;10761;48.532;8.026;2023-08-30T00:15:16;13.80;99.90
21207;DHT22;10761;48.532;8.026;2023-08-30T00:17:41;13.80;99.90
21207;DHT22;10761;48.532;8.026;2023-08-30T00:20:07;13.80;99.90
21207;DHT22;10761;48.532;8.026;2023-08-30T00:22:34;13.80;99.90
21207;DHT22;10761;48.532;8.026;2023-08-30T00:25:00;13.80;99.90
21207;DHT22;10761;48.532;8.026;2023-08-30T00:27:25;13.80;99.90
21207;DHT22;10761;48.532;8.026;2023-08-30T00:29:51;13.80;99.90
21207;DHT22;10761;48.532;8.026;2023-08-30T00:32:17;13.80;99.90
21207;DHT22;10761;48.532;8.026;2023-08-30T00:34:42;13.70;99.90
21207;DHT22;10761;48.532;8.026;2023-08-30T00:37:08;13.70;99.90
21207;DHT22;10761;48.532;8.026;2023-08-30T00:39:37;13.70;99.90
21207;DHT22;10761;48.532;8.026;2023-08-30T00:42:03;13.70;99.90
21207;DHT22;10761;48.532;8.026;2023-08-30T00:44:31;13.70;99.90
21207;DHT22;10761;48.532;8.026;2023-08-30T00:46:57;13.70;99.90
21207;DHT22;10761;48.532;8.026;2023-08-30T00:49:23;13.80;99.90
21207;DHT22;10761;48.532;8.026;2023-08-30T00:51:49;13.70;99.90
21207;DHT22;10761;48.532;8.026;2023-08-30T00:54:15;13.70;99.90
21207;DHT22;10761;48.532;8.026;2023-08-30T00:56:41;13.60;99.90
21207;DHT22;10761;48.532;8.026;2023-08-30T00:59:07;13.60;99.90
21207;DHT22;10761;48.532;8.026;2023-08-30T01:01:32;13.70;99.90
21207;DHT22;10761;48.532;8.026;2023-08-30T01:03:58;13.70;99.90
21207;DHT22;10761;48.532;8.026;2023-08-30T01:06:24;13.70;99.90
21207;DHT22;10761;48.532;8.026;2023-08-30T01:08:49;13.70;99.90
21207;DHT22;10761;48.532;8.026;2023-08-30T01:11:24;13.70;99.90
21207;DHT22;10761;48.532;8.026;2023-08-30T01:14:22;13.80;99.90
21207;DHT22;10761;48.532;8.026;2023-08-30T01:16:51;13.90;99.90
21207;DHT22;10761;48.532;8.026;2023-08-30T01:19:41;13.90;99.90
21207;DHT22;10761;48.532;8.026;2023-08-30T01:22:14;13.80;99.90
21207;DHT22;10761;48.532;8.026;2023-08-30T01:25:08;13.80;99.90
21207;DHT22;10761;48.532;8.026;2023-08-30T01:27:28;13.80;99.90
21207;DHT22;10761;48.532;8.026;2023-08-30T01:29:57;13.80;99.90
21207;DHT22;10761;48.532;8.026;2023-08-30T01:32:24;13.80;99.90
21207;DHT22;10761;48.532;8.026;2023-08-30T01:34:51;13.80;99.90
21207;DHT22;10761;48.532;8.026;2023-08-30T01:37:17;13.80;99.90
21207;DHT22;10761;48.532;8.026;2023-08-30T01:39:43;13.90;99.90
21207;DHT22;10761;48.532;8.026;2023-08-30T01:42:10;13.90;99.90
21207;DHT22;10761;48.532;8.026;2023-08-30T01:44:38;13.90;99.90
21207;DHT22;10761;48.532;8.026;2023-08-30T01:47:06;13.90;99.90
21207;DHT22;10761;48.532;8.026;2023-08-30T01:49:32;13.80;99.90
21207;DHT22;10761;48.532;8.026;2023-08-30T01:51:59;13.80;99.90
21207;DHT22;10761;48.532;8.026;2023-08-30T01:54:25;13.70;99.90
21207;DHT22;10761;48.532;8.026;2023-08-30T01:56:52;13.70;99.90
21207;DHT22;10761;48.532;8.026;2023-08-30T01:59:17;13.60;99.90
21207;DHT22;10761;48.532;8.026;2023-08-30T02:01:43;13.60;99.90
21207;DHT22;10761;48.532;8.026;2023-08-30T02:04:08;13.60;99.90
21207;DHT22;10761;48.532;8.026;2023-08-30T02:07:04;13.50;99.90
21207;DHT22;10761;48.532;8.026;2023-08-30T02:09:52;13.60;99.90
21207;DHT22;10761;48.532;8.026;2023-08-30T02:12:22;13.50;99.90
21207;DHT22;10761;48.532;8.026;2023-08-30T02:14:50;13.60;99.90
21207;DHT22;10761;48.532;8.026;2023-08-30T02:17:17;13.50;99.90
21207;DHT22;10761;48.532;8.026;2023-08-30T02:19:44;13.50;99.90
21207;DHT22;10761;48.532;8.026;2023-08-30T02:22:10;13.50;99.90
21207;DHT22;10761;48.532;8.026;2023-08-30T02:24:35;13.60;99.90
21207;DHT22;10761;48.532;8.026;2023-08-30T02:27:01;13.60;99.90
21207;DHT22;10761;48.532;8.026;2023-08-30T02:29:27;13.50;99.90
21207;DHT22;10761;48.532;8.026;2023-08-30T02:31:52;13.50;99.90
21207;DHT22;10761;48.532;8.026;2023-08-30T02:34:18;13.50;99.90
21207;DHT22;10761;48.532;8.026;2023-08-30T02:36:44;13.50;99.90
21207;DHT22;10761;48.532;8.026;2023-08-30T02:39:09;13.50;99.90
21207;DHT22;10761;48.532;8.026;2023-08-30T02:41:35;13.50;99.90
21207;DHT22;10761;48.532;8.026;2023-08-30T02:44:01;13.40;99.90
21207;DHT22;10761;48.532;8.026;2023-08-30T02:46:27;13.50;99.90
21207;DHT22;10761;48.532;8.026;2023-08-30T02:48:53;13.50;99.90
21207;DHT22;10761;48.532;8.026;2023-08-30T02:51:18;13.50;99.90
21207;DHT22;10761;48.532;8.026;2023-08-30T02:53:44;13.50;99.90
21207;DHT22;10761;48.532;8.026;2023-08-30T02:56:09;13.60;99.90
21207;DHT22;10761;48.532;8.026;2023-08-30T02:58:36;13.70;99.90
21207;DHT22;10761;48.532;8.026;2023-08-30T03:01:02;13.70;99.90
21207;DHT22;10761;48.532;8.026;2023-08-30T03:03:28;13.70;99.90
21207;DHT22;10761;48.532;8.026;2023-08-30T03:05:53;13.70;99.90
21207;DHT22;10761;48.532;8.026;2023-08-30T03:08:19;13.70;99.90
21207;DHT22;10761;48.532;8.026;2023-08-30T03:10:45;13.70;99.90
21207;DHT22;10761;48.532;8.026;2023-08-30T03:13:10;13.60;99.90
21207;DHT22;10761;48.532;8.026;2023-08-30T03:15:36;13.60;99.90
21207;DHT22;10761;48.532;8.026;2023-08-30T03:18:01;13.60;99.90
21207;DHT22;10761;48.532;8.026;2023-08-30T03:20:27;13.60;99.90
21207;DHT22;10761;48.532;8.026;2023-08-30T03:22:56;13.60;99.90
21207;DHT22;10761;48.532;8.026;2023-08-30T03:25:23;13.70;99.90
21207;DHT22;10761;48.532;8.026;2023-08-30T03:27:49;13.70;99.90
21207;DHT22;10761;48.532;8.026;2023-08-30T03:30:15;13.70;99.90
21207;DHT22;10761;48.532;8.026;2023-08-30T03:32:40;13.70;99.90
21207;DHT22;10761;48.532;8.026;2023-08-30T03:35:06;13.80;99.90
21207;DHT22;10761;48.532;8.026;2023-08-30T03:37:32;13.80;99.90
21207;DHT22;10761;48.532;8.026;2023-08-30T03:39:57;13.80;99.90
21207;DHT22;10761;48.532;8.026;2023-08-30T03:42:23;13.70;99.90
21207;DHT22;10761;48.532;8.026;2023-08-30T03:44:48;13.70;99.90
21207;DHT22;10761;48.532;8.026;2023-08-30T03:47:14;13.70;99.90
21207;DHT22;10761;48.532;8.026;2023-08-30T03:49:40;13.60;99.90
21207;DHT22;10761;48.532;8.026;2023-08-30T03:52:05;13.70;99.90
21207;DHT22;10761;48.532;8.026;2023-08-30T03:54:31;13.70;99.90
21207;DHT22;10761;48.532;8.026;2023-08-30T03:56:57;13.70;99.90
21207;DHT22;10761;48.532;8.026;2023-08-30T03:59:23;13.70;99.90
21207;DHT22;10761;48.532;8.026;2023-08-30T04:01:50;13.70;99.90
21207;DHT22;10761;48.532;8.026;2023-08-30T04:04:16;13.70;99.90
21207;DHT22;10761;48.532;8.026;2023-08-30T04:06:42;13.70;99.90
21207;DHT22;10761;48.532;8.026;2023-08-30T04:09:08;13.70;99.90
21207;DHT22;10761;48.532;8.026;2023-08-30T04:11:33;13.70;99.90
21207;DHT22;10761;48.532;8.026;2023-08-30T04:13:59;13.60;99.90
21207;DHT22;10761;48.532;8.026;2023-08-30T04:16:24;13.60;99.90
21207;DHT22;10761;48.532;8.026;2023-08-30T04:18:50;13.60;99.90
21207;DHT22;10761;48.532;8.026;2023-08-30T04:21:16;13.60;99.90
21207;DHT22;10761;48.532;8.026;2023-08-30T04:23:41;13.60;99.90
21207;DHT22;10761;48.532;8.026;2023-08-30T04:26:07;13.60;99.90
21207;DHT22;10761;48.532;8.026;2023-08-30T04:28:33;13.60;99.90
21207;DHT22;10761;48.532;8.026;2023-08-30T04:30:58;13.50;99.90
21207;DHT22;10761;48.532;8.026;2023-08-30T04:33:25;13.50;99.90
21207;DHT22;10761;48.532;8.026;2023-08-30T04:35:54;13.60;99.90
21207;DHT22;10761;48.532;8.026;2023-08-30T04:38:20;13.60;99.90
21207;DHT22;10761;48.532;8.026;2023-08-30T04:40:47;13.60;99.90
21207;DHT22;10761;48.532;8.026;2023-08-30T04:43:14;13.60;99.90
21207;DHT22;10761;48.532;8.026;2023-08-30T04:45:39;13.50;99.90
21207;DHT22;10761;48.532;8.026;2023-08-30T04:48:05;13.50;99.90
21207;DHT22;10761;48.532;8.026;2023-08-30T04:50:31;13.50;99.90
21207;DHT22;10761;48.532;8.026;2023-08-30T04:52:57;13.50;99.90
21207;DHT22;10761;48.532;8.026;2023-08-30T04:55:28;13.50;99.90
21207;DHT22;10761;48.532;8.026;2023-08-30T04:57:54;13.50;99.90
21207;DHT22;10761;48.532;8.026;2023-08-30T05:00:20;13.50;99.90
21207;DHT22;10761;48.532;8.026;2023-08-30T05:02:45;13.60;99.90
21207;DHT22;10761;48.532;8.026;2023-08-30T05:05:12;13.60;99.90
21207;DHT22;10761;48.532;8.026;2023-08-30T05:07:38;13.60;99.90
21207;DHT22;10761;48.532;8.026;2023-08-30T05:10:04;13.60;99.90
21207;DHT22;10761;48.532;8.026;2023-08-30T05:12:30;13.60;99.90
21207;DHT22;10761;48.532;8.026;2023-08-30T05:14:56;13.60;99.90
21207;DHT22;10761;48.532;8.026;2023-08-30T05:17:21;13.60;99.90
21207;DHT22;10761;48.532;8.026;2023-08-30T05:19:47;13.70;99.90
21207;DHT22;10761;48.532;8.026;2023-08-30T05:22:12;13.70;99.90
21207;DHT22;10761;48.532;8.026;2023-08-30T05:24:38;13.80;99.90
21207;DHT22;10761;48.532;8.026;2023-08-30T05:27:04;13.90;99.90
21207;DHT22;10761;48.532;8.026;2023-08-30T05:29:31;13.90;99.90
21207;DHT22;10761;48.532;8.026;2023-08-30T05:31:57;13.90;99.90
21207;DHT22;10761;48.532;8.026;2023-08-30T05:34:22;13.90;99.90
21207;DHT22;10761;48.532;8.026;2023-08-30T05:36:49;14.00;99.90
21207;DHT22;10761;48.532;8.026;2023-08-30T05:39:14;13.90;99.90
21207;DHT22;10761;48.532;8.026;2023-08-30T05:41:40;14.00;99.90
21207;DHT22;10761;48.532;8.026;2023-08-30T05:44:06;14.00;99.90
21207;DHT22;10761;48.532;8.026;2023-08-30T05:46:31;14.00;99.90
21207;DHT22;10761;48.532;8.026;2023-08-30T05:48:57;14.10;99.90
21207;DHT22;10761;48.532;8.026;2023-08-30T05:51:23;14.10;99.90
21207;DHT22;10761;48.532;8.026;2023-08-30T05:53:48;14.10;99.90
21207;DHT22;10761;48.532;8.026;2023-08-30T05:56:14;14.20;99.90
21207;DHT22;10761;48.532;8.026;2023-08-30T05:58:39;14.20;99.90
21207;DHT22;10761;48.532;8.026;2023-08-30T06:01:05;14.20;99.90
21207;DHT22;10761;48.532;8.026;2023-08-30T06:03:32;14.30;99.90
21207;DHT22;10761;48.532;8.026;2023-08-30T06:05:58;14.40;99.90
21207;DHT22;10761;48.532;8.026;2023-08-30T06:08:24;14.40;99.90
21207;DHT22;10761;48.532;8.026;2023-08-30T06:10:49;14.50;99.90
21207;DHT22;10761;48.532;8.026;2023-08-30T06:13:15;14.60;99.90
21207;DHT22;10761;48.532;8.026;2023-08-30T06:15:40;14.70;99.90
21207;DHT22;10761;48.532;8.026;2023-08-30T06:18:07;14.70;99.90
21207;DHT22;10761;48.532;8.026;2023-08-30T06:20:32;14.90;99.90
21207;DHT22;10761;48.532;8.026;2023-08-30T06:22:58;14.90;99.90
21207;DHT22;10761;48.532;8.026;2023-08-30T06:25:24;15.00;99.90
21207;DHT22;10761;48.532;8.026;2023-08-30T06:27:57;15.00;99.90
21207;DHT22;10761;48.532;8.026;2023-08-30T06:30:25;15.10;99.90
21207;DHT22;10761;48.532;8.026;2023-08-30T06:32:50;15.20;99.90
21207;DHT22;10761;48.532;8.026;2023-08-30T06:35:16;15.30;99.90
21207;DHT22;10761;48.532;8.026;2023-08-30T06:37:41;15.40;99.90
21207;DHT22;10761;48.532;8.026;2023-08-30T06:40:07;15.60;99.90
21207;DHT22;10761;48.532;8.026;2023-08-30T06:42:33;15.60;99.90
21207;DHT22;10761;48.532;8.026;2023-08-30T06:44:59;15.60;99.90
21207;DHT22;10761;48.532;8.026;2023-08-30T06:47:24;15.70;99.90
21207;DHT22;10761;48.532;8.026;2023-08-30T06:49:50;15.80;99.90
21207;DHT22;10761;48.532;8.026;2023-08-30T06:52:15;15.80;99.90
21207;DHT22;10761;48.532;8.026;2023-08-30T06:54:41;15.90;99.90
21207;DHT22;10761;48.532;8.026;2023-08-30T06:57:06;15.90;99.90
21207;DHT22;10761;48.532;8.026;2023-08-30T06:59:32;16.00;99.90
21207;DHT22;10761;48.532;8.026;2023-08-30T07:01:58;16.10;99.90
21207;DHT22;10761;48.532;8.026;2023-08-30T07:04:23;16.10;99.90
21207;DHT22;10761;48.532;8.026;2023-08-30T07:06:49;16.20;99.90
21207;DHT22;10761;48.532;8.026;2023-08-30T07:09:15;16.30;99.90
21207;DHT22;10761;48.532;8.026;2023-08-30T07:11:42;16.40;99.90
21207;DHT22;10761;48.532;8.026;2023-08-30T07:14:12;16.50;99.90
21207;DHT22;10761;48.532;8.026;2023-08-30T07:16:39;16.60;1.00
21207;DHT22;10761;48.532;8.026;2023-08-30T07:19:04;16.70;28.80
21207;DHT22;10761;48.532;8.026;2023-08-30T07:21:30;16.80;1.00
21207;DHT22;10761;48.532;8.026;2023-08-30T07:23:56;16.80;1.00
21207;DHT22;10761;48.532;8.026;2023-08-30T07:26:21;16.90;1.00
21207;DHT22;10761;48.532;8.026;2023-08-30T07:28:47;16.90;1.00
21207;DHT22;10761;48.532;8.026;2023-08-30T07:31:12;17.00;1.00
21207;DHT22;10761;48.532;8.026;2023-08-30T07:33:44;17.20;1.00
21207;DHT22;10761;48.532;8.026;2023-08-30T07:36:09;17.30;1.00
21207;DHT22;10761;48.532;8.026;2023-08-30T07:38:35;17.50;1.00
21207;DHT22;10761;48.532;8.026;2023-08-30T07:41:01;17.50;1.00
21207;DHT22;10761;48.532;8.026;2023-08-30T07:43:27;17.60;1.00
21207;DHT22;10761;48.532;8.026;2023-08-30T07:45:53;17.90;99.90
21207;DHT22;10761;48.532;8.026;2023-08-30T07:48:18;18.10;99.90
21207;DHT22;10761;48.532;8.026;2023-08-30T07:50:44;18.40;1.00
21207;DHT22;10761;48.532;8.026;2023-08-30T07:53:10;18.90;1.00
21207;DHT22;10761;48.532;8.026;2023-08-30T07:55:36;19.20;99.90
21207;DHT22;10761;48.532;8.026;2023-08-30T07:58:02;19.50;1.00
21207;DHT22;10761;48.532;8.026;2023-08-30T08:00:29;19.60;1.00
21207;DHT22;10761;48.532;8.026;2023-08-30T08:02:54;19.80;1.00
21207;DHT22;10761;48.532;8.026;2023-08-30T08:05:20;19.50;99.90
21207;DHT22;10761;48.532;8.026;2023-08-30T08:07:50;19.70;1.00
21207;DHT22;10761;48.532;8.026;2023-08-30T08:10:15;19.90;99.90
21207;DHT22;10761;48.532;8.026;2023-08-30T08:12:41;20.00;1.00
21207;DHT22;10761;48.532;8.026;2023-08-30T08:15:07;19.60;1.00
21207;DHT22;10761;48.532;8.026;2023-08-30T08:17:32;19.60;99.90
21207;DHT22;10761;48.532;8.026;2023-08-30T08:19:58;19.20;1.00
21207;DHT22;10761;48.532;8.026;2023-08-30T08:22:23;19.40;1.00
21207;DHT22;10761;48.532;8.026;2023-08-30T08:24:49;19.60;99.90
21207;DHT22;10761;48.532;8.026;2023-08-30T08:27:17;19.70;1.00
21207;DHT22;10761;48.532;8.026;2023-08-30T08:29:42;19.70;1.00
21207;DHT22;10761;48.532;8.026;2023-08-30T08:32:08;19.80;1.00
21207;DHT22;10761;48.532;8.026;2023-08-30T08:34:33;19.70;99.90
21207;DHT22;10761;48.532;8.026;2023-08-30T08:36:59;20.00;1.00
21207;DHT22;10761;48.532;8.026;2023-08-30T08:39:25;20.20;1.00
21207;DHT22;10761;48.532;8.026;2023-08-30T08:41:51;20.30;46.00
21207;DHT22;10761;48.532;8.026;2023-08-30T08:44:18;20.30;99.90
21207;DHT22;10761;48.532;8.026;2023-08-30T08:46:46;20.20;99.90
21207;DHT22;10761;48.532;8.026;2023-08-30T08:49:14;19.80;1.00
21207;DHT22;10761;48.532;8.026;2023-08-30T08:51:41;19.60;99.90
21207;DHT22;10761;48.532;8.026;2023-08-30T08:54:11;19.30;90.90
21207;DHT22;10761;48.532;8.026;2023-08-30T08:56:38;19.10;1.00
21207;DHT22;10761;48.532;8.026;2023-08-30T08:59:04;19.00;1.00
21207;DHT22;10761;48.532;8.026;2023-08-30T09:01:34;19.50;99.90
21207;DHT22;10761;48.532;8.026;2023-08-30T09:04:04;19.30;99.90
21207;DHT22;10761;48.532;8.026;2023-08-30T09:06:30;18.90;1.00
21207;DHT22;10761;48.532;8.026;2023-08-30T09:08:56;18.80;71.00
21207;DHT22;10761;48.532;8.026;2023-08-30T09:11:22;18.70;1.00
21207;DHT22;10761;48.532;8.026;2023-08-30T09:13:47;18.90;1.00
21207;DHT22;10761;48.532;8.026;2023-08-30T09:16:14;19.30;1.00
21207;DHT22;10761;48.532;8.026;2023-08-30T09:18:41;19.50;1.00
21207;DHT22;10761;48.532;8.026;2023-08-30T09:21:07;19.50;1.00
21207;DHT22;10761;48.532;8.026;2023-08-30T09:23:33;19.60;1.00
21207;DHT22;10761;48.532;8.026;2023-08-30T09:25:59;19.40;99.90
21207;DHT22;10761;48.532;8.026;2023-08-30T09:28:25;19.70;99.90
21207;DHT22;10761;48.532;8.026;2023-08-30T09:30:51;19.90;1.00
21207;DHT22;10761;48.532;8.026;2023-08-30T09:33:29;19.70;1.00
21207;DHT22;10761;48.532;8.026;2023-08-30T09:35:56;20.00;1.00
21207;DHT22;10761;48.532;8.026;2023-08-30T09:38:21;20.40;1.00
21207;DHT22;10761;48.532;8.026;2023-08-30T09:40:47;20.40;1.00
21207;DHT22;10761;48.532;8.026;2023-08-30T09:43:13;20.60;96.80
21207;DHT22;10761;48.532;8.026;2023-08-30T09:45:40;20.80;1.00
21207;DHT22;10761;48.532;8.026;2023-08-30T09:48:07;20.80;99.90
21207;DHT22;10761;48.532;8.026;2023-08-30T09:50:34;20.60;1.00
21207;DHT22;10761;48.532;8.026;2023-08-30T09:53:06;20.50;1.00
21207;DHT22;10761;48.532;8.026;2023-08-30T09:55:33;20.40;99.90
21207;DHT22;10761;48.532;8.026;2023-08-30T09:58:00;20.20;99.90
21207;DHT22;10761;48.532;8.026;2023-08-30T10:00:27;20.00;13.90
21207;DHT22;10761;48.532;8.026;2023-08-30T10:02:53;19.80;1.00
21207;DHT22;10761;48.532;8.026;2023-08-30T10:05:20;19.90;1.00
21207;DHT22;10761;48.532;8.026;2023-08-30T10:07:46;20.00;1.00
21207;DHT22;10761;48.532;8.026;2023-08-30T10:10:12;19.90;99.90
21207;DHT22;10761;48.532;8.026;2023-08-30T10:12:39;20.00;1.00
21207;DHT22;10761;48.532;8.026;2023-08-30T10:15:06;20.20;1.00
21207;DHT22;10761;48.532;8.026;2023-08-30T10:17:32;19.80;1.00
21207;DHT22;10761;48.532;8.026;2023-08-30T10:20:05;20.00;1.00
21207;DHT22;10761;48.532;8.026;2023-08-30T10:22:36;20.10;1.00
21207;DHT22;10761;48.532;8.026;2023-08-30T10:25:22;20.40;1.00
21207;DHT22;10761;48.532;8.026;2023-08-30T10:27:50;20.60;1.00
21207;DHT22;10761;48.532;8.026;2023-08-30T10:30:18;20.80;1.00
21207;DHT22;10761;48.532;8.026;2023-08-30T10:32:45;20.90;1.00
21207;DHT22;10761;48.532;8.026;2023-08-30T10:35:15;21.30;99.90
21207;DHT22;10761;48.532;8.026;2023-08-30T10:37:41;21.70;1.00
21207;DHT22;10761;48.532;8.026;2023-08-30T10:40:08;22.10;1.00
21207;DHT22;10761;48.532;8.026;2023-08-30T10:42:34;22.00;1.00
21207;DHT22;10761;48.532;8.026;2023-08-30T10:45:03;22.20;99.90
21207;DHT22;10761;48.532;8.026;2023-08-30T10:47:35;22.30;74.40
21207;DHT22;10761;48.532;8.026;2023-08-30T10:50:07;22.40;99.90
21207;DHT22;10761;48.532;8.026;2023-08-30T10:52:33;22.40;99.90
21207;DHT22;10761;48.532;8.026;2023-08-30T10:55:15;22.50;99.90
21207;DHT22;10761;48.532;8.026;2023-08-30T10:57:42;22.20;99.90
21207;DHT22;10761;48.532;8.026;2023-08-30T11:02:36;21.80;99.90
21207;DHT22;10761;48.532;8.026;2023-08-30T11:05:04;22.10;99.90
21207;DHT22;10761;48.532;8.026;2023-08-30T11:07:30;22.40;99.90
21207;DHT22;10761;48.532;8.026;2023-08-30T11:09:57;22.50;8.00
21207;DHT22;10761;48.532;8.026;2023-08-30T11:12:23;22.60;1.00
21207;DHT22;10761;48.532;8.026;2023-08-30T11:14:52;22.70;1.00
21207;DHT22;10761;48.532;8.026;2023-08-30T11:17:17;22.60;1.00
21207;DHT22;10761;48.532;8.026;2023-08-30T11:19:43;22.60;1.00
21207;DHT22;10761;48.532;8.026;2023-08-30T11:22:09;22.90;1.00
21207;DHT22;10761;48.532;8.026;2023-08-30T11:24:35;23.20;1.00
21207;DHT22;10761;48.532;8.026;2023-08-30T11:27:01;23.30;1.00
21207;DHT22;10761;48.532;8.026;2023-08-30T11:29:27;23.10;1.00
21207;DHT22;10761;48.532;8.026;2023-08-30T11:31:53;22.90;1.00
21207;DHT22;10761;48.532;8.026;2023-08-30T11:34:21;23.20;1.00
21207;DHT22;10761;48.532;8.026;2023-08-30T11:36:48;23.50;1.00
21207;DHT22;10761;48.532;8.026;2023-08-30T11:39:16;23.60;1.00
21207;DHT22;10761;48.532;8.026;2023-08-30T11:41:42;23.60;1.00
21207;DHT22;10761;48.532;8.026;2023-08-30T11:44:08;23.90;1.00
21207;DHT22;10761;48.532;8.026;2023-08-30T11:46:34;24.00;1.00
21207;DHT22;10761;48.532;8.026;2023-08-30T11:49:00;24.00;1.00
21207;DHT22;10761;48.532;8.026;2023-08-30T11:51:26;24.10;1.00
21207;DHT22;10761;48.532;8.026;2023-08-30T11:53:52;24.50;1.00
21207;DHT22;10761;48.532;8.026;2023-08-30T11:56:19;24.50;1.00
21207;DHT22;10761;48.532;8.026;2023-08-30T11:58:45;24.60;1.00
21207;DHT22;10761;48.532;8.026;2023-08-30T12:01:11;24.60;1.00
21207;DHT22;10761;48.532;8.026;2023-08-30T12:03:38;24.90;1.00
21207;DHT22;10761;48.532;8.026;2023-08-30T12:06:12;25.40;1.00
21207;DHT22;10761;48.532;8.026;2023-08-30T12:08:38;25.40;99.90
21207;DHT22;10761;48.532;8.026;2023-08-30T12:11:03;25.50;99.90
21207;DHT22;10761;48.532;8.026;2023-08-30T12:13:32;25.30;99.90
21207;DHT22;10761;48.532;8.026;2023-08-30T12:15:58;24.90;99.90
21207;DHT22;10761;48.532;8.026;2023-08-30T12:18:25;24.20;99.90
21207;DHT22;10761;48.532;8.026;2023-08-30T12:21:01;24.20;1.00
21207;DHT22;10761;48.532;8.026;2023-08-30T12:23:28;24.30;99.90
21207;DHT22;10761;48.532;8.026;2023-08-30T12:26:08;24.00;99.90
21207;DHT22;10761;48.532;8.026;2023-08-30T12:28:35;24.20;1.00
21207;DHT22;10761;48.532;8.026;2023-08-30T12:31:02;24.50;1.00
21207;DHT22;10761;48.532;8.026;2023-08-30T12:33:29;24.40;1.00
21207;DHT22;10761;48.532;8.026;2023-08-30T12:35:56;24.70;1.00
21207;DHT22;10761;48.532;8.026;2023-08-30T12:38:22;24.40;1.00
21207;DHT22;10761;48.532;8.026;2023-08-30T12:40:51;24.10;1.00
21207;DHT22;10761;48.532;8.026;2023-08-30T12:43:18;23.40;1.00
21207;DHT22;10761;48.532;8.026;2023-08-30T12:45:44;22.80;1.00
21207;DHT22;10761;48.532;8.026;2023-08-30T12:48:12;22.60;1.00
21207;DHT22;10761;48.532;8.026;2023-08-30T12:50:39;22.50;1.00
21207;DHT22;10761;48.532;8.026;2023-08-30T12:53:05;22.40;1.00
21207;DHT22;10761;48.532;8.026;2023-08-30T12:55:32;22.10;1.00
21207;DHT22;10761;48.532;8.026;2023-08-30T12:57:58;22.20;1.00
21207;DHT22;10761;48.532;8.026;2023-08-30T13:00:24;23.10;1.00
21207;DHT22;10761;48.532;8.026;2023-08-30T13:02:50;24.00;1.00
21207;DHT22;10761;48.532;8.026;2023-08-30T13:05:16;24.70;1.00
21207;DHT22;10761;48.532;8.026;2023-08-30T13:07:42;24.60;1.00
21207;DHT22;10761;48.532;8.026;2023-08-30T13:10:08;24.80;99.90
21207;DHT22;10761;48.532;8.026;2023-08-30T13:12:34;25.00;99.90
21207;DHT22;10761;48.532;8.026;2023-08-30T13:14:59;24.80;1.00
21207;DHT22;10761;48.532;8.026;2023-08-30T13:17:25;24.60;99.90
21207;DHT22;10761;48.532;8.026;2023-08-30T13:19:50;24.10;99.90
21207;DHT22;10761;48.532;8.026;2023-08-30T13:22:16;23.70;1.00
21207;DHT22;10761;48.532;8.026;2023-08-30T13:24:43;23.60;1.00
21207;DHT22;10761;48.532;8.026;2023-08-30T13:27:09;24.00;1.00
21207;DHT22;10761;48.532;8.026;2023-08-30T13:29:35;24.40;1.00
21207;DHT22;10761;48.532;8.026;2023-08-30T13:32:00;24.70;1.00
21207;DHT22;10761;48.532;8.026;2023-08-30T13:34:26;24.80;99.90
21207;DHT22;10761;48.532;8.026;2023-08-30T13:36:51;24.80;99.90
21207;DHT22;10761;48.532;8.026;2023-08-30T13:39:17;25.10;99.90
21207;DHT22;10761;48.532;8.026;2023-08-30T13:41:45;25.00;99.90
21207;DHT22;10761;48.532;8.026;2023-08-30T13:44:10;24.80;99.90
21207;DHT22;10761;48.532;8.026;2023-08-30T13:46:36;24.70;99.90
21207;DHT22;10761;48.532;8.026;2023-08-30T13:49:01;24.40;99.90
21207;DHT22;10761;48.532;8.026;2023-08-30T13:51:27;24.50;99.90
21207;DHT22;10761;48.532;8.026;2023-08-30T13:53:53;24.40;99.90
21207;DHT22;10761;48.532;8.026;2023-08-30T13:56:19;24.20;99.90
21207;DHT22;10761;48.532;8.026;2023-08-30T13:58:46;24.00;99.90
21207;DHT22;10761;48.532;8.026;2023-08-30T14:01:11;24.30;99.90
21207;DHT22;10761;48.532;8.026;2023-08-30T14:03:38;24.80;99.90
21207;DHT22;10761;48.532;8.026;2023-08-30T14:06:03;24.70;99.90
21207;DHT22;10761;48.532;8.026;2023-08-30T14:08:30;24.80;99.90
21207;DHT22;10761;48.532;8.026;2023-08-30T14:10:56;24.90;99.90
21207;DHT22;10761;48.532;8.026;2023-08-30T14:13:22;25.10;99.90
21207;DHT22;10761;48.532;8.026;2023-08-30T14:15:48;24.40;99.90
21207;DHT22;10761;48.532;8.026;2023-08-30T14:18:14;23.80;99.90
21207;DHT22;10761;48.532;8.026;2023-08-30T14:20:43;23.90;99.90
21207;DHT22;10761;48.532;8.026;2023-08-30T14:23:09;24.10;99.90
21207;DHT22;10761;48.532;8.026;2023-08-30T14:25:35;24.30;99.90
21207;DHT22;10761;48.532;8.026;2023-08-30T14:28:02;24.20;99.90
21207;DHT22;10761;48.532;8.026;2023-08-30T14:30:29;24.20;99.90
21207;DHT22;10761;48.532;8.026;2023-08-30T14:32:54;24.00;99.90
21207;DHT22;10761;48.532;8.026;2023-08-30T14:35:20;23.50;99.90
21207;DHT22;10761;48.532;8.026;2023-08-30T14:37:47;23.70;99.90
21207;DHT22;10761;48.532;8.026;2023-08-30T14:40:13;24.30;99.90
21207;DHT22;10761;48.532;8.026;2023-08-30T14:42:39;24.40;99.90
21207;DHT22;10761;48.532;8.026;2023-08-30T14:45:06;24.40;99.90
21207;DHT22;10761;48.532;8.026;2023-08-30T14:47:35;25.10;99.90
21207;DHT22;10761;48.532;8.026;2023-08-30T14:50:01;25.90;99.90
21207;DHT22;10761;48.532;8.026;2023-08-30T14:52:28;26.00;99.90
21207;DHT22;10761;48.532;8.026;2023-08-30T14:54:54;25.30;99.90
21207;DHT22;10761;48.532;8.026;2023-08-30T14:57:19;24.50;99.90
21207;DHT22;10761;48.532;8.026;2023-08-30T14:59:45;25.00;99.90
21207;DHT22;10761;48.532;8.026;2023-08-30T15:02:11;25.30;99.90
21207;DHT22;10761;48.532;8.026;2023-08-30T15:04:37;25.10;99.90
21207;DHT22;10761;48.532;8.026;2023-08-30T15:07:02;25.40;99.90
21207;DHT22;10761;48.532;8.026;2023-08-30T15:09:30;26.40;99.90
21207;DHT22;10761;48.532;8.026;2023-08-30T15:11:56;27.10;99.90
21207;DHT22;10761;48.532;8.026;2023-08-30T15:14:23;26.80;99.90
21207;DHT22;10761;48.532;8.026;2023-08-30T15:16:49;26.50;99.90
21207;DHT22;10761;48.532;8.026;2023-08-30T15:19:15;26.40;99.90
21207;DHT22;10761;48.532;8.026;2023-08-30T15:21:40;26.40;99.90
21207;DHT22;10761;48.532;8.026;2023-08-30T15:24:06;26.40;99.90
21207;DHT22;10761;48.532;8.026;2023-08-30T15:26:32;26.40;99.90
21207;DHT22;10761;48.532;8.026;2023-08-30T15:28:57;26.30;99.90
21207;DHT22;10761;48.532;8.026;2023-08-30T15:31:23;26.70;99.90
21207;DHT22;10761;48.532;8.026;2023-08-30T15:33:48;26.10;99.90